Time;durP1;ratioP1;P1;durP2;ratioP2;P2;SDS_P1;SDS_P2;PMS_P1;PMS_P2;Temp;Humidity;BMP_temperature;BMP_pressure;BME280_temperature;BME280_humidity;BME280_pressure;Samples;Min_cycle;Max_cycle;Signal;HPM_P1;HPM_P2
2022/08/01 00:00:39;;;;;;;5.28;2.90;;;17.80;99.90;;;;;;5041086;28;20231;-70
2022/08/01 00:03:05;;;;;;;4.57;2.47;;;17.70;99.90;;;;;;5039441;28;20054;-70
2022/08/01 00:05:31;;;;;;;4.65;2.50;;;17.80;99.90;;;;;;5040819;28;20519;-69
2022/08/01 00:07:56;;;;;;;4.20;2.65;;;17.70;99.90;;;;;;5038980;28;20041;-70
2022/08/01 00:10:22;;;;;;;5.85;2.85;;;17.70;99.90;;;;;;5042345;28;20083;-70
2022/08/01 00:12:47;;;;;;;4.78;2.70;;;17.70;99.90;;;;;;5039960;28;20041;-70
2022/08/01 00:15:15;;;;;;;5.88;2.83;;;17.70;99.90;;;;;;5042830;28;20116;-69
2022/08/01 00:17:41;;;;;;;7.90;3.45;;;17.70;99.90;;;;;;5033821;28;20481;-70
2022/08/01 00:20:10;;;;;;;6.53;3.58;;;17.70;99.90;;;;;;5041697;28;20512;-70
2022/08/01 00:22:35;;;;;;;6.60;3.22;;;17.60;99.90;;;;;;5039791;28;20037;-70
2022/08/01 00:25:01;;;;;;;5.18;2.78;;;17.60;99.90;;;;;;5040463;28;20041;-70
2022/08/01 00:27:27;;;;;;;5.13;2.70;;;17.60;99.90;;;;;;5040291;28;20041;-70
2022/08/01 00:29:53;;;;;;;5.20;2.42;;;17.60;99.90;;;;;;5042859;28;20041;-70
2022/08/01 00:32:19;;;;;;;6.38;2.65;;;17.50;99.90;;;;;;5044850;28;20040;-70
2022/08/01 00:34:44;;;;;;;6.18;2.38;;;17.50;99.90;;;;;;5042367;28;20138;-70
2022/08/01 00:37:10;;;;;;;6.13;2.20;;;17.50;99.90;;;;;;5045115;28;20404;-70
2022/08/01 00:39:36;;;;;;;5.82;2.30;;;17.50;99.90;;;;;;5042498;28;20033;-70
2022/08/01 00:42:10;;;;;;;4.15;2.17;;;17.40;99.90;;;;;;5044521;28;20045;-70
2022/08/01 00:44:36;;;;;;;4.10;2.28;;;17.50;99.90;;;;;;5042958;28;20399;-70
2022/08/01 00:47:03;;;;;;;4.75;2.20;;;17.40;99.90;;;;;;5045352;28;20041;-70
2022/08/01 00:49:28;;;;;;;4.18;2.40;;;17.40;99.90;;;;;;5044498;28;20484;-70
2022/08/01 00:51:55;;;;;;;5.20;2.20;;;17.40;99.90;;;;;;5042376;28;20050;-70
2022/08/01 00:54:21;;;;;;;6.80;2.53;;;17.40;99.90;;;;;;5045861;28;20037;-70
2022/08/01 00:56:47;;;;;;;6.13;2.22;;;17.40;99.90;;;;;;5042918;28;20107;-70
2022/08/01 00:59:16;;;;;;;3.97;2.20;;;17.40;99.90;;;;;;5039976;28;20041;-70
2022/08/01 01:01:42;;;;;;;4.80;2.10;;;17.40;99.90;;;;;;5043779;28;20044;-70
2022/08/01 01:04:08;;;;;;;4.80;2.00;;;17.50;99.90;;;;;;5040307;28;20453;-70
2022/08/01 01:06:51;;;;;;;5.72;2.58;;;17.50;99.90;;;;;;5044249;28;20535;-70
2022/08/01 01:09:16;;;;;;;5.38;2.10;;;17.40;99.90;;;;;;5038950;28;20053;-70
2022/08/01 01:12:19;;;;;;;6.03;2.28;;;17.30;99.90;;;;;;5043889;28;20048;-70
2022/08/01 01:14:55;;;;;;;4.60;1.90;;;17.30;99.90;;;;;;5037829;28;20511;-69
2022/08/01 01:17:28;;;;;;;5.53;2.03;;;17.30;99.90;;;;;;5043421;28;20080;-70
2022/08/01 01:19:55;;;;;;;4.72;2.05;;;17.30;99.90;;;;;;5042014;28;20124;-71
2022/08/01 01:22:37;;;;;;;10.75;2.53;;;17.30;99.90;;;;;;5043625;28;20120;-70
2022/08/01 01:25:26;;;;;;;7.40;2.78;;;17.30;99.90;;;;;;5039808;28;20493;-70
2022/08/01 01:28:11;;;;;;;8.90;3.33;;;17.30;99.90;;;;;;5037638;28;20068;-70
2022/08/01 01:30:40;;;;;;;7.55;3.30;;;17.30;99.90;;;;;;5035631;28;20045;-70
2022/08/01 01:33:10;;;;;;;9.73;3.40;;;17.20;99.90;;;;;;5044505;28;20047;-70
2022/08/01 01:35:38;;;;;;;12.25;3.30;;;17.30;99.90;;;;;;5037130;28;20042;-70
2022/08/01 01:38:23;;;;;;;9.90;3.28;;;17.20;99.90;;;;;;5036974;28;20405;-70
2022/08/01 01:40:51;;;;;;;8.55;3.10;;;17.20;99.90;;;;;;5041333;28;20052;-69
2022/08/01 01:43:18;;;;;;;9.07;2.38;;;17.20;99.90;;;;;;5037195;28;20065;-69
2022/08/01 01:45:48;;;;;;;6.72;2.55;;;17.20;99.90;;;;;;5038272;28;20045;-71
2022/08/01 01:48:17;;;;;;;7.47;2.50;;;17.10;99.90;;;;;;5042339;28;20053;-70
2022/08/01 01:50:46;;;;;;;9.10;2.83;;;17.10;99.90;;;;;;5040944;28;20493;-70
2022/08/01 01:53:14;;;;;;;8.60;2.78;;;17.10;99.90;;;;;;5043355;28;20033;-70
2022/08/01 01:55:41;;;;;;;7.18;2.70;;;17.00;99.90;;;;;;5004578;28;1060848;-70
2022/08/01 01:58:08;;;;;;;10.85;3.05;;;17.00;99.90;;;;;;5039237;28;20052;-70
2022/08/01 02:00:35;;;;;;;7.63;3.17;;;17.00;99.90;;;;;;5042189;28;20049;-69
2022/08/01 02:03:03;;;;;;;9.88;2.90;;;17.00;99.90;;;;;;5043448;28;20076;-70
2022/08/01 02:05:29;;;;;;;6.82;2.72;;;17.00;99.90;;;;;;5037156;28;20091;-70
2022/08/01 02:07:56;;;;;;;9.43;3.00;;;17.00;99.90;;;;;;5044785;28;20071;-70
2022/08/01 02:10:23;;;;;;;9.50;2.90;;;17.00;99.90;;;;;;5040507;28;20116;-70
2022/08/01 02:12:49;;;;;;;8.70;3.13;;;17.00;99.90;;;;;;5041597;28;20083;-71
2022/08/01 02:15:17;;;;;;;7.47;2.90;;;17.00;99.90;;;;;;5043949;28;20044;-70
2022/08/01 02:17:46;;;;;;;9.63;2.78;;;17.00;99.90;;;;;;5042525;28;20033;-70
2022/08/01 02:20:13;;;;;;;7.13;2.80;;;16.90;99.90;;;;;;5043174;28;20497;-70
2022/08/01 02:22:53;;;;;;;9.13;3.15;;;17.00;99.90;;;;;;5042539;28;20531;-70
2022/08/01 02:25:41;;;;;;;8.23;2.42;;;16.90;99.90;;;;;;5042584;28;20049;-70
2022/08/01 02:28:12;;;;;;;9.30;2.95;;;17.00;99.90;;;;;;5037525;28;20485;-70
2022/08/01 02:30:41;;;;;;;9.43;2.85;;;16.90;99.90;;;;;;5040874;28;20037;-70
2022/08/01 02:33:20;;;;;;;9.60;2.97;;;16.90;99.90;;;;;;5042647;28;20549;-70
2022/08/01 02:35:50;;;;;;;9.02;2.67;;;16.90;99.90;;;;;;5038257;28;20049;-71
2022/08/01 02:38:18;;;;;;;5.00;2.20;;;16.90;99.90;;;;;;5043432;28;20044;-70
2022/08/01 02:40:47;;;;;;;10.40;2.70;;;16.80;99.90;;;;;;5042270;28;20040;-70
2022/08/01 02:43:18;;;;;;;9.20;2.70;;;16.90;99.90;;;;;;5042402;28;20046;-70
2022/08/01 02:45:49;;;;;;;9.75;2.85;;;16.80;99.90;;;;;;5040356;28;20041;-70
2022/08/01 02:48:18;;;;;;;4.13;2.40;;;16.80;99.90;;;;;;5042311;28;20041;-71
2022/08/01 02:50:47;;;;;;;7.97;2.90;;;16.80;99.90;;;;;;5041695;28;20049;-71
2022/08/01 02:53:14;;;;;;;7.95;2.55;;;16.70;99.90;;;;;;5041534;28;20041;-70
2022/08/01 02:55:42;;;;;;;7.38;2.40;;;16.70;99.90;;;;;;5041921;28;20128;-70
2022/08/01 02:58:10;;;;;;;8.55;2.60;;;16.70;99.90;;;;;;5039554;28;20560;-70
2022/08/01 03:00:36;;;;;;;8.75;3.15;;;16.70;99.90;;;;;;5040902;28;20049;-70
2022/08/01 03:03:06;;;;;;;10.70;3.50;;;16.70;99.90;;;;;;5042474;28;20045;-71
2022/08/01 03:05:34;;;;;;;8.85;2.67;;;16.70;99.90;;;;;;5040375;28;20372;-71
2022/08/01 03:08:01;;;;;;;8.00;2.60;;;16.70;99.90;;;;;;5041440;28;20136;-69
2022/08/01 03:10:28;;;;;;;10.85;3.10;;;16.70;99.90;;;;;;5040580;28;20128;-71
2022/08/01 03:12:55;;;;;;;10.70;3.15;;;16.70;99.90;;;;;;5042631;28;20065;-71
2022/08/01 03:15:23;;;;;;;11.02;2.83;;;16.80;99.90;;;;;;5036361;28;20120;-71
2022/08/01 03:17:51;;;;;;;10.35;2.97;;;16.60;99.90;;;;;;5042707;28;20041;-69
2022/08/01 03:20:19;;;;;;;9.80;2.70;;;16.60;99.90;;;;;;5040290;28;20073;-69
2022/08/01 03:22:45;;;;;;;16.65;3.33;;;16.50;99.90;;;;;;5035306;28;20072;-69
2022/08/01 03:25:13;;;;;;;10.65;2.83;;;16.70;99.90;;;;;;5032248;28;20132;-69
2022/08/01 03:27:41;;;;;;;9.40;2.78;;;16.50;99.90;;;;;;5033152;28;20505;-69
2022/08/01 03:30:08;;;;;;;10.88;3.03;;;16.50;99.90;;;;;;5038307;28;20107;-70
2022/08/01 03:32:34;;;;;;;17.30;3.40;;;16.50;99.90;;;;;;5041497;28;20085;-70
2022/08/01 03:35:00;;;;;;;14.40;2.70;;;16.40;99.90;;;;;;5041074;28;20056;-70
2022/08/01 03:37:27;;;;;;;9.98;2.60;;;16.40;99.90;;;;;;5040538;28;20042;-70
2022/08/01 03:40:09;;;;;;;9.70;2.80;;;16.40;99.90;;;;;;5041298;28;20045;-70
2022/08/01 03:42:44;;;;;;;10.88;2.90;;;16.30;99.90;;;;;;5040503;28;20064;-71
2022/08/01 03:45:18;;;;;;;13.40;3.30;;;16.30;99.90;;;;;;5030764;28;20509;-70
2022/08/01 03:47:49;;;;;;;11.40;2.83;;;16.20;99.90;;;;;;5036105;28;20128;-70
2022/08/01 03:50:22;;;;;;;10.85;2.80;;;16.30;99.90;;;;;;5043290;28;20076;-69
2022/08/01 03:52:50;;;;;;;9.18;2.88;;;16.30;99.90;;;;;;5040468;28;20536;-69
2022/08/01 03:55:18;;;;;;;11.95;2.67;;;16.20;99.90;;;;;;5040792;28;20049;-69
2022/08/01 03:57:45;;;;;;;13.20;2.95;;;16.30;99.90;;;;;;5039700;28;20377;-69
2022/08/01 04:00:11;;;;;;;11.65;2.60;;;16.30;99.90;;;;;;5039685;28;20526;-70
2022/08/01 04:02:38;;;;;;;11.65;3.22;;;16.20;99.90;;;;;;5033725;28;20128;-70
2022/08/01 04:05:04;;;;;;;9.00;2.80;;;16.20;99.90;;;;;;5041328;28;20037;-69
2022/08/01 04:07:32;;;;;;;8.07;2.85;;;16.20;99.90;;;;;;5040532;28;20485;-70
2022/08/01 04:09:58;;;;;;;12.52;2.90;;;16.20;99.90;;;;;;5041294;28;20045;-69
2022/08/01 04:12:24;;;;;;;11.50;3.05;;;16.20;99.90;;;;;;5039795;28;20037;-70
2022/08/01 04:14:50;;;;;;;11.15;3.40;;;16.20;99.90;;;;;;5038180;28;20053;-70
2022/08/01 04:17:18;;;;;;;12.80;3.78;;;16.20;99.90;;;;;;5030986;28;20050;-68
2022/08/01 04:19:44;;;;;;;11.77;2.85;;;16.20;99.90;;;;;;5034012;28;20041;-68
2022/08/01 04:22:13;;;;;;;13.82;3.50;;;16.20;99.90;;;;;;5036958;28;20053;-70
2022/08/01 04:24:40;;;;;;;10.88;2.97;;;16.20;99.90;;;;;;5041049;28;20063;-71
2022/08/01 04:27:14;;;;;;;9.45;3.50;;;16.20;99.90;;;;;;5038821;28;20037;-69
2022/08/01 04:29:41;;;;;;;8.43;2.95;;;16.20;99.90;;;;;;5036633;28;20065;-68
2022/08/01 04:32:11;;;;;;;9.15;2.72;;;16.20;99.90;;;;;;5039423;28;20051;-68
2022/08/01 04:34:39;;;;;;;8.98;2.75;;;16.20;99.90;;;;;;5042713;28;20116;-69
2022/08/01 04:37:10;;;;;;;11.55;3.38;;;16.20;99.90;;;;;;5037661;28;20485;-68
2022/08/01 04:39:37;;;;;;;13.02;3.42;;;16.20;99.90;;;;;;5041862;28;20176;-68
2022/08/01 04:42:05;;;;;;;13.32;2.47;;;16.20;99.90;;;;;;5039391;28;20042;-69
2022/08/01 04:44:32;;;;;;;8.70;2.88;;;16.20;99.90;;;;;;5034442;28;20045;-69
2022/08/01 04:47:02;;;;;;;11.90;2.63;;;16.20;99.90;;;;;;5041061;28;20607;-68
2022/08/01 04:49:32;;;;;;;8.52;2.55;;;16.20;99.90;;;;;;5039644;28;20037;-68
2022/08/01 04:51:59;;;;;;;9.77;2.97;;;16.30;99.90;;;;;;5042054;28;20111;-69
2022/08/01 04:54:26;;;;;;;8.68;2.55;;;16.20;99.90;;;;;;5039882;28;20370;-68
2022/08/01 04:56:55;;;;;;;10.48;2.78;;;16.20;99.90;;;;;;5041562;28;20263;-69
2022/08/01 04:59:39;;;;;;;10.35;2.75;;;16.20;99.90;;;;;;5039978;28;20053;-69
2022/08/01 05:02:14;;;;;;;10.88;3.40;;;16.20;99.90;;;;;;5031537;28;20466;-68
2022/08/01 05:04:40;;;;;;;12.65;3.00;;;16.20;99.90;;;;;;5040404;28;20488;-68
2022/08/01 05:07:07;;;;;;;8.13;2.70;;;16.20;99.90;;;;;;5039195;28;20104;-69
2022/08/01 05:09:33;;;;;;;11.02;2.78;;;16.20;99.90;;;;;;5042078;28;20049;-69
2022/08/01 05:12:01;;;;;;;12.25;3.10;;;16.30;99.90;;;;;;5038975;28;20045;-68
2022/08/01 05:14:28;;;;;;;11.38;3.15;;;16.30;99.90;;;;;;5044771;28;20110;-69
2022/08/01 05:16:53;;;;;;;9.90;3.13;;;16.30;99.90;;;;;;5041781;28;20045;-69
2022/08/01 05:19:19;;;;;;;10.60;3.30;;;16.30;99.90;;;;;;5044918;28;20053;-69
2022/08/01 05:21:45;;;;;;;9.93;2.80;;;16.30;99.90;;;;;;5044043;28;20082;-68
2022/08/01 05:24:12;;;;;;;9.00;2.95;;;16.30;99.90;;;;;;5042644;28;20136;-68
2022/08/01 05:26:38;;;;;;;13.07;3.60;;;16.30;99.90;;;;;;5042785;28;20171;-70
2022/08/01 05:29:07;;;;;;;8.75;2.50;;;16.30;99.90;;;;;;5040983;28;20539;-69
2022/08/01 05:31:34;;;;;;;10.35;3.35;;;16.40;99.90;;;;;;5043832;28;20382;-71
2022/08/01 05:34:01;;;;;;;11.32;2.95;;;16.40;99.90;;;;;;5043370;28;20095;-69
2022/08/01 05:36:27;;;;;;;10.55;2.90;;;16.40;99.90;;;;;;5041549;28;20053;-69
2022/08/01 05:38:52;;;;;;;7.72;2.97;;;16.40;99.90;;;;;;5045517;28;20515;-70
2022/08/01 05:41:18;;;;;;;9.43;3.03;;;16.50;99.90;;;;;;5040831;28;20405;-69
2022/08/01 05:43:43;;;;;;;11.20;3.38;;;16.50;99.90;;;;;;5041192;28;20049;-69
2022/08/01 05:46:09;;;;;;;12.40;2.80;;;16.60;99.90;;;;;;5040645;28;20405;-70
2022/08/01 05:48:34;;;;;;;11.07;2.72;;;16.60;99.90;;;;;;5041420;28;20133;-70
2022/08/01 05:51:00;;;;;;;8.40;2.83;;;16.60;99.90;;;;;;5043356;28;20078;-70
2022/08/01 05:53:26;;;;;;;9.07;3.30;;;16.70;99.90;;;;;;5042338;28;20037;-69
2022/08/01 05:55:52;;;;;;;13.45;3.00;;;16.70;99.90;;;;;;5044596;28;20627;-69
2022/08/01 05:58:17;;;;;;;9.70;2.90;;;16.70;99.90;;;;;;5040763;28;20038;-69
2022/08/01 06:00:43;;;;;;;9.40;2.50;;;16.80;99.90;;;;;;5042182;28;20564;-69
2022/08/01 06:03:08;;;;;;;10.38;2.92;;;16.90;99.90;;;;;;5042255;28;20038;-70
2022/08/01 06:05:34;;;;;;;7.30;2.85;;;16.90;99.90;;;;;;5042461;28;20457;-70
2022/08/01 06:08:06;;;;;;;8.10;2.55;;;16.90;99.90;;;;;;5042706;28;20045;-70
2022/08/01 06:10:32;;;;;;;5.93;2.10;;;17.00;99.90;;;;;;5043775;28;20064;-70
2022/08/01 06:12:57;;;;;;;12.00;3.03;;;17.10;99.90;;;;;;5042741;28;20511;-70
2022/08/01 06:15:23;;;;;;;9.15;2.50;;;17.10;99.90;;;;;;5042383;28;20037;-70
2022/08/01 06:17:48;;;;;;;11.50;2.72;;;17.10;99.90;;;;;;5043167;28;20037;-70
2022/08/01 06:20:15;;;;;;;8.45;2.30;;;17.00;99.90;;;;;;5037276;28;20056;-69
2022/08/01 06:22:40;;;;;;;7.00;1.92;;;17.00;99.90;;;;;;5043784;28;20496;-69
2022/08/01 06:25:07;;;;;;;11.20;2.60;;;17.00;99.90;;;;;;5041155;28;20086;-69
2022/08/01 06:27:35;;;;;;;6.70;2.40;;;16.90;99.90;;;;;;5042424;28;20029;-69
2022/08/01 06:30:00;;;;;;;8.13;2.83;;;16.80;99.90;;;;;;5041667;28;20497;-70
2022/08/01 06:32:26;;;;;;;7.32;2.28;;;16.80;99.90;;;;;;5042865;28;20115;-70
2022/08/01 06:34:52;;;;;;;10.82;2.60;;;16.80;99.90;;;;;;5043042;28;20061;-70
2022/08/01 06:37:18;;;;;;;9.90;2.17;;;16.80;99.90;;;;;;5040864;28;20037;-69
2022/08/01 06:39:43;;;;;;;10.80;2.33;;;16.80;99.90;;;;;;5043779;28;20045;-70
2022/08/01 06:42:09;;;;;;;7.97;2.50;;;16.90;99.90;;;;;;5039997;28;20064;-70
2022/08/01 06:44:35;;;;;;;8.98;2.67;;;16.80;99.90;;;;;;5042032;28;20045;-70
2022/08/01 06:47:04;;;;;;;9.52;2.47;;;16.90;99.90;;;;;;5039599;28;20040;-70
2022/08/01 06:49:30;;;;;;;6.80;2.00;;;16.90;99.90;;;;;;5042055;28;20048;-70
2022/08/01 06:51:56;;;;;;;7.38;1.75;;;16.90;99.90;;;;;;5041503;28;20041;-70
2022/08/01 06:54:21;;;;;;;9.52;2.53;;;17.00;99.90;;;;;;5040795;28;20040;-70
2022/08/01 06:56:47;;;;;;;6.38;2.20;;;16.90;99.90;;;;;;5043683;28;20056;-71
2022/08/01 06:59:12;;;;;;;7.88;2.13;;;16.90;99.90;;;;;;5039499;28;20041;-70
2022/08/01 07:01:38;;;;;;;6.72;1.98;;;17.10;99.90;;;;;;5043024;28;20061;-70
2022/08/01 07:04:04;;;;;;;7.35;2.30;;;17.10;99.90;;;;;;5039378;28;20041;-69
2022/08/01 07:06:29;;;;;;;8.18;2.35;;;17.20;99.90;;;;;;5041498;28;20053;-70
2022/08/01 07:08:55;;;;;;;9.75;2.15;;;17.20;99.90;;;;;;5040573;28;20037;-70
2022/08/01 07:11:22;;;;;;;8.85;2.20;;;17.20;99.90;;;;;;5041166;28;20049;-70
2022/08/01 07:13:48;;;;;;;9.50;2.00;;;17.30;99.90;;;;;;5042831;28;20036;-70
2022/08/01 07:16:15;;;;;;;7.78;2.00;;;17.20;99.90;;;;;;5041400;28;20037;-72
2022/08/01 07:18:41;;;;;;;5.13;1.80;;;17.40;99.90;;;;;;5038956;28;20103;-70
2022/08/01 07:21:07;;;;;;;5.43;1.80;;;17.40;99.90;;;;;;5042473;28;20040;-70
2022/08/01 07:23:33;;;;;;;7.88;2.30;;;17.50;99.90;;;;;;5039452;28;20128;-72
2022/08/01 07:26:01;;;;;;;8.93;2.65;;;17.60;99.90;;;;;;5040949;28;20127;-68
2022/08/01 07:28:27;;;;;;;8.18;1.83;;;17.60;99.90;;;;;;5034519;28;20057;-69
2022/08/01 07:30:52;;;;;;;10.45;2.47;;;17.80;99.90;;;;;;5037276;28;20103;-69
2022/08/01 07:33:18;;;;;;;7.85;2.15;;;17.90;99.90;;;;;;5038405;28;20029;-69
2022/08/01 07:35:44;;;;;;;5.72;1.90;;;18.10;99.90;;;;;;5039472;28;20055;-70
2022/08/01 07:38:09;;;;;;;7.07;2.13;;;18.70;99.90;;;;;;5040658;28;20124;-70
2022/08/01 07:40:35;;;;;;;9.02;2.70;;;19.60;99.90;;;;;;5038126;28;20565;-70
2022/08/01 07:43:01;;;;;;;8.57;2.20;;;20.40;99.90;;;;;;5034351;28;20045;-72
2022/08/01 07:45:26;;;;;;;9.27;2.10;;;21.20;99.90;;;;;;5038317;28;20114;-71
2022/08/01 07:47:52;;;;;;;6.22;1.75;;;21.90;99.90;;;;;;5039927;28;20033;-71
2022/08/01 07:50:18;;;;;;;5.70;1.75;;;22.50;99.90;;;;;;5039931;28;20045;-71
2022/08/01 07:52:44;;;;;;;5.95;1.70;;;22.90;99.90;;;;;;5040297;28;20048;-72
2022/08/01 07:55:11;;;;;;;7.03;2.00;;;23.10;99.90;;;;;;5041101;28;20512;-72
2022/08/01 07:57:37;;;;;;;6.57;1.60;;;23.70;99.90;;;;;;5040794;28;20180;-72
2022/08/01 08:00:06;;;;;;;5.03;1.67;;;24.20;99.90;;;;;;5039879;28;20033;-71
2022/08/01 08:02:32;;;;;;;4.93;1.70;;;24.40;99.20;;;;;;5036054;28;20508;-72
2022/08/01 08:05:00;;;;;;;5.82;1.42;;;24.80;99.20;;;;;;5035559;28;20431;-73
2022/08/01 08:07:26;;;;;;;6.88;1.65;;;24.70;97.50;;;;;;5039958;28;20041;-71
2022/08/01 08:09:52;;;;;;;4.10;1.52;;;24.50;97.40;;;;;;5039314;28;20394;-72
2022/08/01 08:12:18;;;;;;;6.43;2.10;;;24.10;98.00;;;;;;5040888;28;20046;-71
2022/08/01 08:14:43;;;;;;;6.45;1.92;;;24.20;97.70;;;;;;5040230;28;20067;-72
2022/08/01 08:17:09;;;;;;;5.63;1.67;;;24.60;97.60;;;;;;5039587;28;20444;-72
2022/08/01 08:19:36;;;;;;;6.15;1.42;;;25.30;97.40;;;;;;5040127;28;20405;-71
2022/08/01 08:22:03;;;;;;;6.43;1.50;;;25.80;96.50;;;;;;5041516;28;20035;-72
2022/08/01 08:24:28;;;;;;;6.30;1.80;;;26.10;95.10;;;;;;5038440;28;20041;-71
2022/08/01 08:26:57;;;;;;;5.95;1.80;;;26.20;95.70;;;;;;5041619;28;20041;-72
2022/08/01 08:29:23;;;;;;;7.80;1.65;;;25.60;94.70;;;;;;5037381;28;20451;-71
2022/08/01 08:31:50;;;;;;;8.05;1.50;;;25.50;94.60;;;;;;5040639;28;20041;-72
2022/08/01 08:34:17;;;;;;;4.43;1.35;;;25.30;94.90;;;;;;5040056;28;20492;-73
2022/08/01 08:36:45;;;;;;;6.38;1.60;;;25.00;94.80;;;;;;5039693;28;20669;-73
2022/08/01 08:39:13;;;;;;;6.30;1.40;;;24.90;95.30;;;;;;5040403;28;20485;-74
2022/08/01 08:41:38;;;;;;;7.90;1.67;;;24.70;95.60;;;;;;5041241;28;20044;-72
2022/08/01 08:44:06;;;;;;;6.88;1.50;;;24.90;94.10;;;;;;5039612;28;20049;-73
2022/08/01 08:46:33;;;;;;;6.00;1.40;;;25.30;95.50;;;;;;5040254;28;20037;-73
2022/08/01 08:49:01;;;;;;;5.40;1.52;;;25.10;92.70;;;;;;5044389;28;20048;-72
2022/08/01 08:51:29;;;;;;;4.90;1.30;;;25.30;94.10;;;;;;5043263;28;20037;-73
2022/08/01 08:53:56;;;;;;;6.55;1.48;;;25.70;93.80;;;;;;5044699;28;20048;-73
2022/08/01 08:56:24;;;;;;;5.22;1.73;;;25.90;93.80;;;;;;5042055;28;20572;-72
2022/08/01 08:58:51;;;;;;;3.88;1.70;;;26.00;93.70;;;;;;5038437;28;20045;-72
2022/08/01 09:01:20;;;;;;;4.28;1.17;;;26.20;93.70;;;;;;5043104;28;20124;-72
2022/08/01 09:03:48;;;;;;;6.47;1.63;;;26.20;93.70;;;;;;5038342;28;20041;-73
2022/08/01 09:06:14;;;;;;;5.70;1.67;;;25.80;93.00;;;;;;5043812;28;20082;-71
2022/08/01 09:08:40;;;;;;;5.43;1.35;;;25.70;94.00;;;;;;5042650;28;20436;-71
2022/08/01 09:11:06;;;;;;;6.00;1.38;;;25.70;93.30;;;;;;5038941;28;20049;-73
2022/08/01 09:13:31;;;;;;;5.30;1.30;;;26.30;93.70;;;;;;5044355;28;20374;-72
2022/08/01 09:15:58;;;;;;;3.53;1.30;;;26.10;92.60;;;;;;5041019;28;20041;-72
2022/08/01 09:18:44;;;;;;;5.03;1.33;;;26.10;92.80;;;;;;5041381;28;20037;-72
2022/08/01 09:21:22;;;;;;;4.85;1.30;;;26.50;93.10;;;;;;5044483;28;20493;-70
2022/08/01 09:23:54;;;;;;;5.55;1.50;;;26.50;91.50;;;;;;5037968;28;20053;-70
2022/08/01 09:26:27;;;;;;;5.45;1.27;;;26.60;92.00;;;;;;5045153;28;20488;-70
2022/08/01 09:28:53;;;;;;;7.05;1.42;;;27.00;92.10;;;;;;5041571;28;20100;-71
2022/08/01 09:31:19;;;;;;;3.63;1.10;;;27.30;91.80;;;;;;5040526;28;20073;-70
2022/08/01 09:33:53;;;;;;;5.18;1.65;;;27.30;91.20;;;;;;5045339;28;20036;-70
2022/08/01 09:36:27;;;;;;;3.75;1.30;;;27.50;90.30;;;;;;5038765;28;20049;-70
2022/08/01 09:38:54;;;;;;;6.15;1.35;;;27.80;91.30;;;;;;5043115;28;20037;-70
2022/08/01 09:41:33;;;;;;;6.88;1.70;;;27.80;91.20;;;;;;5042515;28;20041;-70
2022/08/01 09:43:59;;;;;;;5.35;1.70;;;27.80;90.60;;;;;;5042355;28;20040;-70
2022/08/01 09:46:24;;;;;;;5.95;1.65;;;27.20;89.90;;;;;;5037196;28;20167;-70
2022/08/01 09:48:58;;;;;;;5.15;1.58;;;27.40;91.40;;;;;;5044392;28;20048;-70
2022/08/01 09:51:29;;;;;;;5.85;1.40;;;27.10;89.90;;;;;;5042071;28;20531;-71
2022/08/01 09:53:55;;;;;;;5.80;1.33;;;27.30;90.90;;;;;;5042823;28;20045;-70
2022/08/01 09:56:22;;;;;;;4.63;1.35;;;26.70;90.90;;;;;;5042105;28;20099;-70
2022/08/01 09:58:56;;;;;;;7.13;1.65;;;26.80;90.40;;;;;;5044512;28;20048;-69
2022/08/01 10:01:22;;;;;;;4.77;1.20;;;26.30;90.60;;;;;;5035407;28;20392;-69
2022/08/01 10:04:10;;;;;;;6.60;1.30;;;25.40;90.90;;;;;;5041618;28;20363;-69
2022/08/01 10:06:36;;;;;;;4.55;1.40;;;25.50;90.10;;;;;;5040555;28;20120;-70
2022/08/01 10:09:03;;;;;;;4.53;1.20;;;26.10;91.10;;;;;;5041536;28;20049;-69
2022/08/01 10:11:29;;;;;;;4.95;1.70;;;26.70;90.60;;;;;;5041627;28;20044;-73
2022/08/01 10:13:58;;;;;;;3.10;1.20;;;27.20;90.60;;;;;;5043400;28;20120;-70
2022/08/01 10:16:26;;;;;;;4.63;1.30;;;27.50;90.50;;;;;;5041462;28;20492;-70
2022/08/01 10:18:53;;;;;;;3.95;1.30;;;27.00;90.30;;;;;;5038727;28;20073;-71
2022/08/01 10:21:20;;;;;;;6.38;1.10;;;26.70;90.20;;;;;;5043283;28;20056;-71
2022/08/01 10:23:47;;;;;;;5.45;1.35;;;26.80;89.60;;;;;;5042885;28;20042;-70
2022/08/01 10:26:14;;;;;;;5.43;1.25;;;26.90;90.20;;;;;;5044367;28;20037;-70
2022/08/01 10:28:42;;;;;;;3.85;1.20;;;26.90;90.10;;;;;;5040599;28;20064;-71
2022/08/01 10:31:09;;;;;;;7.07;1.40;;;27.10;90.30;;;;;;5044735;28;20048;-70
2022/08/01 10:33:36;;;;;;;3.40;1.25;;;27.20;88.00;;;;;;5039563;28;20037;-71
2022/08/01 10:36:02;;;;;;;4.38;1.10;;;27.30;88.40;;;;;;5036494;28;20045;-70
2022/08/01 10:38:31;;;;;;;4.18;1.10;;;27.40;86.20;;;;;;5043173;28;20067;-70
2022/08/01 10:40:59;;;;;;;5.88;1.40;;;27.10;85.30;;;;;;5041823;28;20560;-70
2022/08/01 10:43:24;;;;;;;3.08;1.23;;;27.30;90.10;;;;;;5041616;28;20404;-70
2022/08/01 10:45:51;;;;;;;3.03;1.15;;;27.20;88.30;;;;;;5042310;28;20481;-70
2022/08/01 10:48:31;;;;;;;5.32;1.27;;;27.10;88.50;;;;;;5039983;28;20053;-75
2022/08/01 10:51:01;;;;;;;6.15;1.30;;;27.10;88.20;;;;;;5042895;28;20041;-73
2022/08/01 10:53:28;;;;;;;5.45;1.20;;;27.20;86.60;;;;;;5045204;28;20037;-73
2022/08/01 10:55:59;;;;;;;4.97;1.20;;;27.10;87.50;;;;;;5043640;28;20128;-72
2022/08/01 10:58:33;;;;;;;6.32;1.38;;;27.30;88.00;;;;;;5040427;28;20037;-72
2022/08/01 11:01:15;;;;;;;3.33;1.20;;;27.40;87.50;;;;;;5035463;28;20049;-73
2022/08/01 11:04:09;;;;;;;5.03;1.30;;;27.30;87.30;;;;;;5039258;28;20064;-74
2022/08/01 11:06:35;;;;;;;2.70;1.02;;;27.30;86.80;;;;;;5034581;28;20057;-74
2022/08/01 11:09:15;;;;;;;3.75;1.08;;;27.10;86.80;;;;;;5042586;28;20063;-75
2022/08/01 11:12:02;;;;;;;4.43;1.20;;;27.40;86.00;;;;;;5038317;28;20044;-74
2022/08/01 11:14:29;;;;;;;4.72;1.10;;;27.30;85.40;;;;;;5035795;28;20045;-74
2022/08/01 11:16:54;;;;;;;3.92;1.30;;;27.00;84.50;;;;;;5040192;28;20049;-73
2022/08/01 11:19:21;;;;;;;5.78;1.40;;;27.10;87.50;;;;;;5037963;28;20378;-73
2022/08/01 11:21:53;;;;;;;4.57;1.10;;;27.40;87.30;;;;;;5041940;28;20045;-73
2022/08/01 11:24:47;;;;;;;4.50;1.30;;;27.60;86.70;;;;;;5040831;28;20091;-73
2022/08/01 11:27:39;;;;;;;3.03;1.05;;;27.30;84.00;;;;;;5041611;28;20500;-72
2022/08/01 11:30:11;;;;;;;5.03;1.13;;;27.10;86.10;;;;;;5039479;28;20084;-71
2022/08/01 11:32:57;;;;;;;4.55;1.23;;;27.10;86.40;;;;;;5039592;28;20116;-71
2022/08/01 11:35:26;;;;;;;5.00;1.25;;;27.10;85.00;;;;;;5036415;28;20052;-72
2022/08/01 11:37:55;;;;;;;3.95;1.42;;;26.80;86.50;;;;;;5034635;28;20045;-73
2022/08/01 11:40:24;;;;;;;4.82;1.20;;;27.20;87.40;;;;;;5042963;28;20040;-71
2022/08/01 11:43:11;;;;;;;5.95;1.08;;;27.30;87.40;;;;;;5040241;28;20037;-72
2022/08/01 11:45:55;;;;;;;;;;;27.40;87.80;;;;;;5040401;28;20037;-72
2022/08/01 11:48:26;;;;;;;5.57;1.38;;;27.50;83.70;;;;;;5033712;28;20003;-73
2022/08/01 11:50:52;;;;;;;4.63;1.00;;;27.20;85.70;;;;;;5035361;28;20135;-73
2022/08/01 11:53:19;;;;;;;4.10;1.30;;;27.20;88.00;;;;;;5042927;28;20037;-72
2022/08/01 11:56:03;;;;;;;4.38;1.10;;;27.10;86.20;;;;;;5038999;28;20064;-73
2022/08/01 11:58:29;;;;;;;5.80;1.40;;;27.20;85.80;;;;;;5037999;28;20048;-74
2022/08/01 12:00:57;;;;;;;3.92;1.10;;;26.80;84.40;;;;;;5042182;28;20037;-74
2022/08/01 12:03:32;;;;;;;5.70;1.10;;;26.90;86.20;;;;;;5040134;28;20032;-74
2022/08/01 12:05:58;;;;;;;;;;;26.80;84.60;;;;;;5041024;28;20080;-74
2022/08/01 12:08:29;;;;;;;3.70;1.10;;;26.50;86.20;;;;;;5037420;28;19956;-75
2022/08/01 12:10:55;;;;;;;4.10;1.30;;;26.80;85.70;;;;;;5042325;28;20063;-75
2022/08/01 12:13:21;;;;;;;3.92;1.15;;;26.90;84.90;;;;;;5040176;28;20083;-74
2022/08/01 12:15:47;;;;;;;5.38;1.30;;;26.70;86.40;;;;;;5041357;28;20045;-75
2022/08/01 12:18:13;;;;;;;5.57;1.30;;;26.60;84.60;;;;;;5039456;28;20091;-74
2022/08/01 12:20:47;;;;;;;4.25;1.35;;;26.60;84.60;;;;;;5041755;28;20041;-74
2022/08/01 12:23:15;;;;;;;4.53;1.50;;;26.50;83.20;;;;;;5041872;28;20117;-76
2022/08/01 12:25:43;;;;;;;4.45;1.70;;;26.30;86.40;;;;;;5046731;28;20036;-72
2022/08/01 12:28:15;;;;;;;3.13;1.20;;;26.30;87.20;;;;;;5041489;28;20046;-73
2022/08/01 12:30:47;;;;;;;3.92;1.10;;;26.50;86.50;;;;;;5045640;28;20519;-73
2022/08/01 12:33:18;;;;;;;3.17;1.10;;;26.40;86.20;;;;;;5038387;28;20047;-73
2022/08/01 12:35:44;;;;;;;4.22;1.70;;;26.30;85.70;;;;;;5041988;28;20512;-73
2022/08/01 12:38:26;;;;;;;5.32;2.00;;;26.20;86.10;;;;;;5045200;28;20045;-72
2022/08/01 12:40:52;;;;;;;4.50;1.58;;;26.20;86.30;;;;;;5041578;28;20060;-72
2022/08/01 12:43:19;;;;;;;6.00;1.38;;;26.20;85.80;;;;;;5044821;28;20033;-74
2022/08/01 12:45:48;;;;;;;4.90;1.20;;;26.10;86.00;;;;;;5043616;28;20156;-74
2022/08/01 12:48:16;;;;;;;3.70;1.35;;;26.10;85.40;;;;;;5042121;28;20091;-73
2022/08/01 12:50:46;;;;;;;5.53;1.27;;;25.90;84.40;;;;;;5037674;28;20095;-73
2022/08/01 12:53:14;;;;;;;4.25;1.30;;;25.80;85.20;;;;;;5037879;28;20050;-74